Time;durP1;ratioP1;P1;durP2;ratioP2;P2;SDS_P1;SDS_P2;PMS_P1;PMS_P2;Temp;Humidity;BMP_temperature;BMP_pressure;BME280_temperature;BME280_humidity;BME280_pressure;Samples;Min_cycle;Max_cycle;Signal;HPM_P1;HPM_P2
2022/06/08 00:01:14;;;;;;;12.43;5.30;;;;;;;13.93;69.96;99430.59;5013368;28;20522;-61
2022/06/08 00:03:47;;;;;;;19.73;5.35;;;;;;;13.87;70.29;99407.41;5012913;28;20046;-62
2022/06/08 00:06:14;;;;;;;16.88;5.60;;;;;;;13.93;69.80;99407.16;5013003;28;20503;-61
2022/06/08 00:08:41;;;;;;;11.02;5.15;;;;;;;13.99;70.85;99409.50;5013078;28;20037;-61
2022/06/08 00:11:07;;;;;;;10.52;5.18;;;;;;;14.00;70.51;99410.38;5012965;28;20029;-61
2022/06/08 00:13:33;;;;;;;11.07;5.53;;;;;;;13.94;69.57;99401.06;5013330;28;20026;-61
2022/06/08 00:15:58;;;;;;;15.10;5.40;;;;;;;14.03;69.38;99412.84;5012664;28;20037;-61
2022/06/08 00:18:24;;;;;;;7.60;5.07;;;;;;;13.98;69.39;99413.88;5012765;28;20026;-61
2022/06/08 00:20:50;;;;;;;11.07;4.82;;;;;;;13.92;69.64;99408.94;5012461;28;20135;-61
2022/06/08 00:23:16;;;;;;;12.32;4.88;;;;;;;13.84;69.67;99405.78;5011476;28;20034;-61
2022/06/08 00:25:41;;;;;;;13.75;4.57;;;;;;;13.91;70.03;99409.81;5012959;28;20033;-61
2022/06/08 00:28:07;;;;;;;12.25;4.70;;;;;;;13.89;70.54;99414.22;5012414;28;20041;-61
2022/06/08 00:30:33;;;;;;;9.85;4.40;;;;;;;13.91;69.25;99415.03;5011926;28;20550;-62
2022/06/08 00:32:58;;;;;;;12.48;4.82;;;;;;;13.86;70.20;99414.34;5011459;28;20041;-62
2022/06/08 00:35:24;;;;;;;10.88;4.65;;;;;;;13.90;70.88;99405.53;5012561;28;20021;-62
2022/06/08 00:37:50;;;;;;;8.05;4.82;;;;;;;13.91;70.75;99417.63;5012350;28;20035;-62
2022/06/08 00:40:20;;;;;;;16.60;4.60;;;;;;;13.57;70.64;99366.91;5011607;28;20391;-62
2022/06/08 00:42:47;;;;;;;10.50;4.72;;;;;;;13.86;70.60;99416.13;5012210;28;20029;-62
2022/06/08 00:45:17;;;;;;;9.07;4.75;;;;;;;13.52;71.71;99366.22;5012483;28;20034;-62
2022/06/08 00:47:55;;;;;;;10.35;4.70;;;;;;;13.67;70.24;99371.72;5011243;28;20057;-62
2022/06/08 00:50:26;;;;;;;11.05;5.10;;;;;;;13.86;70.86;99405.72;5012362;28;20388;-62
2022/06/08 00:52:53;;;;;;;10.13;4.13;;;;;;;13.85;70.51;99406.59;4994685;28;20809;-62
2022/06/08 00:55:23;;;;;;;9.88;4.53;;;;;;;13.84;70.39;99421.41;5012244;28;20144;-62
2022/06/08 00:57:51;;;;;;;10.70;4.43;;;;;;;13.89;71.05;99406.41;5012384;28;20083;-62
2022/06/08 01:00:26;;;;;;;7.13;4.35;;;;;;;13.58;71.13;99346.94;5011940;28;20033;-62
2022/06/08 01:02:51;;;;;;;10.27;4.30;;;;;;;13.95;70.78;99398.38;5012629;28;20038;-61
2022/06/08 01:05:40;;;;;;;13.95;5.25;;;;;;;14.01;71.39;99399.91;5012577;28;20402;-62
2022/06/08 01:08:19;;;;;;;8.02;3.80;;;;;;;13.63;71.53;99348.44;5004180;28;20077;-62
2022/06/08 01:10:48;;;;;;;10.98;4.35;;;;;;;13.64;70.49;99346.69;5012317;28;20045;-62
2022/06/08 01:13:13;;;;;;;7.53;4.50;;;;;;;13.92;70.84;99398.50;5010774;28;20380;-62
2022/06/08 01:15:41;;;;;;;17.23;5.10;;;;;;;13.66;70.66;99344.03;5011875;28;20080;-62
2022/06/08 01:18:08;;;;;;;11.38;5.20;;;;;;;13.97;71.40;99395.72;5011950;28;20497;-63
2022/06/08 01:20:34;;;;;;;9.73;4.72;;;;;;;14.04;71.59;99404.97;5011898;28;20033;-62
2022/06/08 01:23:00;;;;;;;8.35;4.63;;;;;;;14.05;71.67;99401.47;5012104;28;20030;-62
2022/06/08 01:25:37;;;;;;;11.70;4.70;;;;;;;14.00;71.54;99400.78;5012150;28;20109;-62
2022/06/08 01:28:14;;;;;;;13.85;5.25;;;;;;;14.03;71.30;99394.63;5016271;28;20378;-62
2022/06/08 01:30:48;;;;;;;10.05;5.00;;;;;;;14.05;72.07;99405.81;5016010;28;20472;-62
2022/06/08 01:33:34;;;;;;;10.45;4.75;;;;;;;14.03;71.51;99405.03;5015812;28;20085;-61
2022/06/08 01:36:18;;;;;;;11.65;4.50;;;;;;;13.86;72.43;99406.53;5015751;28;20034;-62
2022/06/08 01:39:07;;;;;;;9.45;5.13;;;;;;;13.60;72.40;99350.34;5015687;28;20026;-62
2022/06/08 01:41:51;;;;;;;11.70;4.80;;;;;;;13.99;72.17;99409.50;5015705;28;20034;-62
2022/06/08 01:45:28;;;;;;;10.63;4.70;;;;;;;14.00;72.38;99411.22;5015800;28;20026;-62
2022/06/08 01:47:48;;;;;;;14.73;4.63;;;;;;;13.99;72.63;99409.50;5015366;28;20041;-62
2022/06/08 01:50:43;;;;;;;11.05;5.10;;;;;;;13.98;72.33;99411.28;5013866;28;20372;-62
2022/06/08 01:53:17;;;;;;;11.05;5.25;;;;;;;14.01;71.53;99425.06;5005467;28;20120;-62
2022/06/08 01:56:00;;;;;;;9.80;4.88;;;;;;;14.06;72.72;99417.94;4995291;28;20057;-62
2022/06/08 01:58:48;;;;;;;10.05;4.97;;;;;;;14.10;72.38;99409.09;5012967;28;20034;-62
2022/06/08 02:01:36;;;;;;;14.27;5.15;;;;;;;14.25;72.34;99418.88;5014267;28;20103;-62
2022/06/08 02:04:04;;;;;;;15.23;5.07;;;;;;;14.27;72.98;99421.44;5014182;28;20049;-62
2022/06/08 02:06:44;;;;;;;16.70;5.13;;;;;;;14.31;71.02;99444.69;5013248;28;20045;-61
2022/06/08 02:09:19;;;;;;;10.82;4.68;;;;;;;14.23;72.14;99427.66;5013271;28;20120;-62
2022/06/08 02:11:59;;;;;;;10.68;4.35;;;;;;;14.33;70.85;99424.59;5012922;28;20021;-62
2022/06/08 02:14:38;;;;;;;13.57;5.05;;;;;;;14.45;71.90;99433.69;5012952;28;20072;-62
2022/06/08 02:17:09;;;;;;;11.43;5.00;;;;;;;14.48;71.90;99424.91;5013438;28;20037;-62
2022/06/08 02:19:42;;;;;;;9.52;4.78;;;;;;;14.48;71.69;99419.69;4995538;28;20033;-62
2022/06/08 02:22:19;;;;;;;12.35;5.10;;;;;;;14.71;71.08;99431.78;5011498;28;20038;-62
2022/06/08 02:25:01;;;;;;;13.70;5.20;;;;;;;14.48;71.01;99380.63;4995537;28;20157;-60
2022/06/08 02:27:38;;;;;;;9.25;4.75;;;;;;;14.44;70.76;99379.03;5011744;28;20033;-63
2022/06/08 02:30:16;;;;;;;7.65;5.07;;;;;;;14.56;70.87;99388.94;5014612;28;20065;-63
2022/06/08 02:35:42;;;;;;;9.32;5.18;;;;;;;15.04;71.55;99438.22;5014526;28;20029;-62
2022/06/08 02:38:14;;;;;;;11.38;5.20;;;;;;;15.07;71.29;99446.75;5012644;28;20044;-60
2022/06/08 02:40:53;;;;;;;10.90;5.28;;;;;;;14.95;71.62;99419.44;5013750;28;20494;-60
2022/06/08 02:43:32;;;;;;;11.90;5.85;;;;;;;15.17;71.44;99434.13;5014504;28;20026;-60
2022/06/08 02:46:29;;;;;;;12.90;6.18;;;;;;;15.21;71.86;99434.88;5014973;28;20034;-61
2022/06/08 02:48:55;;;;;;;13.38;5.57;;;;;;;15.28;71.36;99437.13;5018932;28;20470;-60
2022/06/08 02:51:27;;;;;;;12.25;5.82;;;;;;;15.24;71.08;99427.72;5016930;28;20042;-60
2022/06/08 02:54:04;;;;;;;14.00;6.00;;;;;;;15.11;70.50;99390.09;5017048;28;20022;-60
2022/06/08 02:56:44;;;;;;;14.55;6.20;;;;;;;15.34;71.15;99446.44;5014105;28;20487;-60
2022/06/08 02:59:49;;;;;;;15.10;5.70;;;;;;;15.38;71.41;99453.22;5015131;28;20040;-60
2022/06/08 03:02:18;;;;;;;14.75;6.00;;;;;;;15.38;70.55;99434.09;5025858;28;20398;-61
2022/06/08 03:04:56;;;;;;;18.42;6.78;;;;;;;15.48;68.92;99436.22;5011985;28;20510;-61
2022/06/08 03:07:27;;;;;;;14.50;6.80;;;;;;;15.30;68.60;99401.34;5015198;28;20045;-60
2022/06/08 03:09:55;;;;;;;21.73;6.47;;;;;;;15.44;69.06;99405.13;5014630;28;20447;-61
2022/06/08 03:12:34;;;;;;;18.48;6.63;;;;;;;15.85;67.90;99470.25;5013920;28;20030;-60
2022/06/08 03:15:04;;;;;;;14.13;5.90;;;;;;;15.64;66.07;99410.25;5022566;28;20034;-61
2022/06/08 03:17:34;;;;;;;19.75;6.88;;;;;;;15.71;64.33;99413.41;5030714;28;20038;-62
2022/06/08 03:20:02;;;;;;;20.67;6.93;;;;;;;16.26;63.60;99471.81;5012662;28;20030;-63
2022/06/08 03:22:28;;;;;;;17.70;7.20;;;;;;;16.34;62.24;99487.97;5013536;28;20036;-63
2022/06/08 03:24:54;;;;;;;17.40;7.10;;;;;;;16.51;61.82;99469.69;5013985;28;20109;-62
2022/06/08 03:27:20;;;;;;;15.52;7.07;;;;;;;16.55;60.67;99476.44;5013863;28;20026;-62
2022/06/08 03:29:46;;;;;;;15.18;6.53;;;;;;;16.65;60.61;99463.78;5013667;28;20100;-62
2022/06/08 03:32:11;;;;;;;18.52;6.60;;;;;;;17.00;59.25;99476.00;5013470;28;20037;-62
2022/06/08 03:34:37;;;;;;;11.73;5.63;;;;;;;17.14;58.56;99476.13;5012365;28;20030;-61
2022/06/08 03:37:04;;;;;;;17.77;5.78;;;;;;;17.14;57.46;99468.28;5013695;28;20065;-62
2022/06/08 03:39:30;;;;;;;14.10;5.78;;;;;;;17.27;56.72;99470.28;5013283;28;20049;-62
2022/06/08 03:41:55;;;;;;;11.63;5.60;;;;;;;17.36;57.09;99468.00;5013257;28;20467;-62
2022/06/08 03:44:21;;;;;;;12.35;5.65;;;;;;;17.44;55.88;99464.97;5012104;28;20026;-62
2022/06/08 03:46:54;;;;;;;7.35;4.40;;;;;;;17.18;52.92;99422.72;5013141;28;20088;-62
2022/06/08 03:49:22;;;;;;;11.43;5.03;;;;;;;17.42;53.70;99441.50;5013062;28;20029;-62
2022/06/08 03:51:50;;;;;;;11.50;4.82;;;;;;;17.28;53.33;99409.97;5012942;28;20117;-62
2022/06/08 03:54:19;;;;;;;10.38;4.60;;;;;;;17.62;54.66;99481.47;5013048;28;20053;-62
2022/06/08 03:56:50;;;;;;;13.43;6.10;;;;;;;17.37;54.35;99414.75;5013277;28;20021;-61
2022/06/08 03:59:16;;;;;;;8.45;4.53;;;;;;;17.75;54.19;99476.41;5012792;28;20034;-61
2022/06/08 04:01:43;;;;;;;8.60;4.03;;;;;;;17.81;54.05;99468.22;5013092;28;20026;-62
2022/06/08 04:04:08;;;;;;;10.38;4.38;;;;;;;17.85;53.18;99482.00;5012424;28;20136;-62
2022/06/08 04:06:34;;;;;;;9.55;4.70;;;;;;;17.85;51.18;99487.25;5013046;28;20034;-63
2022/06/08 04:09:01;;;;;;;7.90;3.80;;;;;;;17.87;52.27;99475.75;5012905;28;20077;-62
2022/06/08 04:11:27;;;;;;;7.90;4.00;;;;;;;17.96;52.50;99487.53;5012837;28;20097;-61
2022/06/08 04:13:52;;;;;;;7.18;3.28;;;;;;;17.97;50.07;99489.22;5011708;28;20037;-61
2022/06/08 04:16:19;;;;;;;15.10;3.90;;;;;;;18.05;51.67;99481.75;5012996;28;20029;-61
2022/06/08 04:18:45;;;;;;;10.73;3.13;;;;;;;18.08;47.93;99481.59;5012402;28;20101;-61
2022/06/08 04:21:12;;;;;;;6.78;3.38;;;;;;;18.19;48.21;99482.78;5012647;28;20157;-61
2022/06/08 04:23:41;;;;;;;7.28;3.35;;;;;;;17.88;47.24;99437.28;5011659;28;20034;-61
2022/06/08 04:26:07;;;;;;;11.80;3.17;;;;;;;18.32;49.54;99489.00;5012828;28;20033;-61
2022/06/08 04:28:34;;;;;;;5.28;3.05;;;;;;;18.33;47.99;99482.84;5011168;28;20034;-61
2022/06/08 04:31:00;;;;;;;10.75;4.05;;;;;;;18.35;47.34;99483.59;5012423;28;20073;-61
2022/06/08 04:33:26;;;;;;;7.40;2.90;;;;;;;18.29;45.39;99476.09;5011298;28;20030;-60
2022/06/08 04:35:51;;;;;;;7.30;2.92;;;;;;;18.45;46.11;99479.53;5012528;28;20037;-62
2022/06/08 04:38:17;;;;;;;9.27;3.20;;;;;;;18.19;45.87;99440.84;5012456;28;20113;-62
2022/06/08 04:40:46;;;;;;;6.00;3.03;;;;;;;18.45;45.55;99474.28;5012351;28;20045;-62
2022/06/08 04:43:12;;;;;;;5.85;2.58;;;;;;;18.64;47.14;99473.22;5012303;28;20041;-62
2022/06/08 04:45:38;;;;;;;5.10;2.85;;;;;;;18.46;45.18;99481.19;5011035;28;20024;-61
2022/06/08 04:48:04;;;;;;;5.63;2.42;;;;;;;18.59;45.80;99477.88;5012194;28;20022;-62
2022/06/08 04:50:30;;;;;;;4.13;2.78;;;;;;;18.81;46.70;99477.44;5012233;28;20070;-61
2022/06/08 04:52:56;;;;;;;5.80;2.70;;;;;;;18.74;44.94;99474.38;5012119;28;20040;-62
2022/06/08 04:55:22;;;;;;;6.30;2.55;;;;;;;18.79;44.36;99472.28;5011401;28;20030;-62
2022/06/08 04:57:49;;;;;;;7.25;2.70;;;;;;;19.00;45.46;99464.13;5012250;28;20062;-62
2022/06/08 05:00:17;;;;;;;4.50;2.53;;;;;;;18.86;45.72;99432.59;5011231;28;20045;-62
2022/06/08 05:02:49;;;;;;;8.85;2.55;;;;;;;19.15;44.95;99478.09;5011656;28;20483;-62
2022/06/08 05:05:25;;;;;;;3.35;2.03;;;;;;;18.73;42.77;99451.69;5012030;28;20518;-61
2022/06/08 05:07:51;;;;;;;6.95;2.53;;;;;;;19.05;43.84;99488.31;5012234;28;20050;-61
2022/06/08 05:10:18;;;;;;;3.17;2.00;;;;;;;19.26;43.52;99480.91;5012045;28;20034;-62
2022/06/08 05:12:45;;;;;;;2.75;2.33;;;;;;;19.33;42.63;99473.53;5011827;28;20097;-62
2022/06/08 05:15:17;;;;;;;6.13;3.08;;;;;;;19.65;43.34;99473.28;5011946;28;20060;-62
2022/06/08 05:17:42;;;;;;;4.15;2.30;;;;;;;19.57;41.67;99488.72;5012190;28;20088;-62
2022/06/08 05:20:10;;;;;;;2.92;2.28;;;;;;;19.80;43.99;99482.03;5011971;28;20435;-62
2022/06/08 05:22:37;;;;;;;6.05;2.35;;;;;;;19.86;43.74;99483.44;5011691;28;20106;-63
2022/06/08 05:25:05;;;;;;;5.82;2.53;;;;;;;19.59;43.05;99439.53;5011925;28;20026;-63
2022/06/08 05:27:31;;;;;;;4.82;2.72;;;;;;;19.76;42.34;99488.41;5011853;28;20032;-62
2022/06/08 05:29:56;;;;;;;6.45;2.83;;;;;;;19.92;43.76;99493.56;5011835;28;20441;-63
2022/06/08 05:32:22;;;;;;;8.73;2.60;;;;;;;19.74;42.47;99499.00;5011748;28;20030;-63
2022/06/08 05:34:48;;;;;;;5.10;2.53;;;;;;;20.08;43.71;99491.66;5012133;28;20073;-63
2022/06/08 05:37:13;;;;;;;3.42;1.90;;;;;;;20.26;42.28;99501.91;5010479;28;20391;-62
2022/06/08 05:39:39;;;;;;;6.53;2.25;;;;;;;20.25;41.25;99501.09;5011714;28;20037;-61
2022/06/08 05:42:05;;;;;;;3.08;2.22;;;;;;;20.17;41.76;99498.94;5011618;28;20368;-63
2022/06/08 05:44:32;;;;;;;4.57;2.13;;;;;;;20.16;41.78;99501.66;5011005;28;20510;-63
2022/06/08 05:46:58;;;;;;;4.32;1.90;;;;;;;20.28;41.39;99497.41;5009575;28;20080;-62
2022/06/08 05:49:23;;;;;;;3.72;2.38;;;;;;;20.16;40.40;99502.50;5009747;28;20038;-63
2022/06/08 05:51:49;;;;;;;4.47;1.92;;;;;;;20.19;39.99;99511.97;5009842;28;20022;-64
2022/06/08 05:54:15;;;;;;;3.65;1.92;;;;;;;20.26;40.36;99507.19;5009361;28;20030;-65
2022/06/08 05:56:40;;;;;;;4.88;1.65;;;;;;;20.52;40.79;99505.47;5009237;28;20468;-64
2022/06/08 05:59:07;;;;;;;7.20;2.10;;;;;;;20.41;40.37;99502.69;5009758;28;20034;-63
2022/06/08 06:01:33;;;;;;;2.97;1.85;;;;;;;20.45;40.45;99510.31;5010502;28;20451;-64
2022/06/08 06:04:02;;;;;;;3.67;2.13;;;;;;;20.37;41.32;99509.97;5009570;28;20034;-65
2022/06/08 06:06:29;;;;;;;3.00;1.90;;;;;;;20.67;42.38;99516.81;5009636;28;20030;-64
2022/06/08 06:08:57;;;;;;;4.32;1.88;;;;;;;20.89;41.13;99510.13;5009610;28;20109;-64
2022/06/08 06:11:22;;;;;;;7.60;1.90;;;;;;;20.77;40.91;99512.63;5009461;28;20025;-64
2022/06/08 06:13:48;;;;;;;6.57;1.95;;;;;;;20.85;41.17;99510.31;5012848;28;20032;-64
2022/06/08 06:16:13;;;;;;;4.13;1.50;;;;;;;20.79;39.36;99518.66;5013593;28;20026;-62
2022/06/08 06:18:39;;;;;;;8.73;1.60;;;;;;;20.77;39.55;99511.78;5014923;28;20026;-63
2022/06/08 06:21:04;;;;;;;5.53;1.65;;;;;;;20.82;39.75;99507.03;5014648;28;20026;-62
2022/06/08 06:23:30;;;;;;;2.45;1.60;;;;;;;20.82;38.88;99518.44;5014584;28;20022;-63
2022/06/08 06:25:56;;;;;;;7.22;1.90;;;;;;;20.89;38.89;99516.22;5014839;28;20158;-64
2022/06/08 06:28:22;;;;;;;3.00;1.77;;;;;;;20.88;38.71;99518.94;5013837;28;20026;-63
2022/06/08 06:30:48;;;;;;;2.50;1.50;;;;;;;21.08;39.97;99518.47;5013543;28;20045;-64
2022/06/08 06:33:14;;;;;;;3.92;1.65;;;;;;;20.98;39.44;99509.50;5014710;28;20041;-64
2022/06/08 06:35:41;;;;;;;6.30;1.85;;;;;;;20.89;39.91;99520.66;5014716;28;20038;-65
2022/06/08 06:38:08;;;;;;;2.92;1.50;;;;;;;20.91;38.55;99513.47;5014617;28;20036;-64
2022/06/08 06:40:35;;;;;;;4.18;1.90;;;;;;;21.18;40.26;99521.31;5014522;28;20038;-64
2022/06/08 06:43:01;;;;;;;3.20;1.45;;;;;;;20.95;37.67;99517.59;5012939;28;20030;-63
2022/06/08 06:45:28;;;;;;;5.28;1.77;;;;;;;20.79;37.43;99516.00;5014064;28;20022;-63
2022/06/08 06:47:54;;;;;;;3.63;1.50;;;;;;;21.00;38.67;99516.34;5028610;28;20038;-65
2022/06/08 06:50:19;;;;;;;6.53;1.65;;;;;;;21.18;39.90;99511.63;5014775;28;20049;-64
2022/06/08 06:52:46;;;;;;;2.85;1.50;;;;;;;21.14;37.80;99515.41;5013892;28;20033;-64
2022/06/08 06:55:20;;;;;;;2.47;1.50;;;;;;;21.08;37.39;99517.59;5012605;28;20108;-63
2022/06/08 06:57:46;;;;;;;3.60;1.40;;;;;;;21.36;37.81;99517.41;5014374;28;20395;-61
2022/06/08 07:00:12;;;;;;;1.83;1.58;;;;;;;21.44;37.68;99516.03;5014458;28;20025;-61
2022/06/08 07:02:38;;;;;;;4.35;1.30;;;;;;;21.36;36.84;99504.25;5012705;28;20026;-62
2022/06/08 07:05:04;;;;;;;7.82;1.77;;;;;;;21.48;37.22;99512.25;5013941;28;20042;-62
2022/06/08 07:07:29;;;;;;;5.13;1.73;;;;;;;21.68;36.47;99518.78;5014074;28;20034;-61
2022/06/08 07:09:55;;;;;;;2.75;1.40;;;;;;;21.69;35.53;99510.78;5014748;28;20052;-63
2022/06/08 07:12:20;;;;;;;2.85;1.30;;;;;;;21.86;37.48;99504.31;5014370;28;20494;-62
2022/06/08 07:14:46;;;;;;;1.92;1.40;;;;;;;22.10;36.53;99519.28;5014345;28;20468;-62
2022/06/08 07:17:11;;;;;;;6.82;1.85;;;;;;;22.17;37.15;99506.50;5013992;28;20037;-62
2022/06/08 07:19:37;;;;;;;5.47;3.97;;;;;;;22.26;36.63;99516.41;5014314;28;20041;-62
2022/06/08 07:22:03;;;;;;;4.15;1.40;;;;;;;22.30;36.00;99517.84;5014010;28;20026;-62
2022/06/08 07:24:33;;;;;;;3.67;1.20;;;;;;;22.41;36.17;99522.38;5012350;28;20025;-61
2022/06/08 07:27:01;;;;;;;2.78;1.63;;;;;;;22.34;35.76;99507.94;5011040;28;20436;-62
2022/06/08 07:29:26;;;;;;;2.95;1.27;;;;;;;22.35;33.75;99518.41;5012962;28;20026;-60
2022/06/08 07:31:52;;;;;;;2.58;1.25;;;;;;;22.23;34.34;99517.47;5008998;28;20036;-61
2022/06/08 07:34:18;;;;;;;2.92;1.08;;;;;;;22.38;34.20;99522.59;5013914;28;20108;-62
2022/06/08 07:36:47;;;;;;;4.32;1.40;;;;;;;22.41;34.26;99527.66;5012284;28;20104;-62
2022/06/08 07:39:15;;;;;;;2.15;1.40;;;;;;;22.23;32.95;99519.25;5012148;28;20104;-60
2022/06/08 07:41:44;;;;;;;1.88;1.02;;;;;;;22.32;33.92;99513.31;5014034;28;20025;-61
2022/06/08 07:44:10;;;;;;;4.25;1.60;;;;;;;22.33;34.20;99516.81;5012757;28;20018;-61
2022/06/08 07:46:36;;;;;;;8.32;1.83;;;;;;;22.21;35.44;99516.72;5013789;28;20033;-61
2022/06/08 07:51:53;;;;;;;3.10;1.40;;;;;;;22.49;34.26;99514.75;5013826;28;20065;-62
2022/06/08 07:54:22;;;;;;;2.63;1.33;;;;;;;22.44;32.95;99516.03;5011817;28;20021;-62
2022/06/08 07:56:48;;;;;;;2.40;1.50;;;;;;;22.24;35.00;99511.22;5013874;28;20030;-62
2022/06/08 07:59:14;;;;;;;4.28;1.80;;;;;;;21.93;33.85;99506.50;5013578;28;20025;-64
2022/06/08 08:01:40;;;;;;;1.52;1.33;;;;;;;22.23;34.69;99500.78;5012959;28;20041;-64
2022/06/08 08:04:05;;;;;;;3.47;1.60;;;;;;;22.23;34.77;99499.00;5012965;28;20030;-64
2022/06/08 08:06:31;;;;;;;6.80;1.92;;;;;;;22.48;35.77;99496.38;5011956;28;20087;-62
2022/06/08 08:09:00;;;;;;;2.80;1.30;;;;;;;22.09;32.95;99461.38;5011850;28;20026;-63
2022/06/08 08:11:26;;;;;;;2.30;1.33;;;;;;;22.56;34.59;99505.41;5010828;28;20026;-63
2022/06/08 08:13:53;;;;;;;2.47;1.50;;;;;;;22.52;33.13;99514.50;5011558;28;20026;-62
2022/06/08 08:16:19;;;;;;;4.53;1.40;;;;;;;22.58;33.73;99500.84;5012497;28;20030;-63
2022/06/08 08:18:44;;;;;;;3.20;1.52;;;;;;;22.58;34.05;99507.94;5010147;28;20022;-65
2022/06/08 08:21:10;;;;;;;3.88;1.40;;;;;;;22.57;33.19;99498.31;5011387;28;20105;-62
2022/06/08 08:23:36;;;;;;;3.63;1.10;;;;;;;22.57;33.97;99491.28;5012658;28;20104;-63
2022/06/08 08:26:01;;;;;;;3.53;1.10;;;;;;;22.50;32.09;99497.09;5011306;28;20072;-62
2022/06/08 08:28:27;;;;;;;5.82;1.52;;;;;;;22.71;34.56;99492.84;5011144;28;20109;-63
2022/06/08 08:30:53;;;;;;;2.90;1.20;;;;;;;22.88;34.54;99498.66;5013031;28;20057;-62
2022/06/08 08:33:18;;;;;;;3.80;1.20;;;;;;;;;;5012885;28;20044;-63
2022/06/08 08:35:44;;;;;;;1.73;1.27;;;;;;;22.97;32.14;99497.13;5012761;28;20437;-64
2022/06/08 08:38:11;;;;;;;4.50;1.63;;;;;;;23.11;32.47;99499.56;5012963;28;20033;-64
2022/06/08 08:40:44;;;;;;;5.32;1.55;;;;;;;22.90;31.76;99502.03;5012724;28;20022;-65
2022/06/08 08:43:14;;;;;;;1.50;1.20;;;;;;;22.85;31.56;99456.66;5009653;28;20022;-63
2022/06/08 08:45:59;;;;;;;1.23;1.13;;;;;;;23.12;32.23;99492.50;5012638;28;20324;-63
2022/06/08 08:48:28;;;;;;;5.13;1.60;;;;;;;23.09;32.68;99470.59;5012964;28;20022;-62
2022/06/08 08:51:21;;;;;;;2.40;1.10;;;;;;;23.09;30.40;99481.16;5012864;28;20030;-62
2022/06/08 08:53:52;;;;;;;2.85;1.30;;;;;;;23.25;31.26;99486.13;5011469;28;20026;-63
2022/06/08 08:56:30;;;;;;;1.10;1.00;;;;;;;23.19;31.48;99494.56;5012508;28;20042;-64
2022/06/08 08:58:56;;;;;;;2.40;0.93;;;;;;;23.32;32.69;99475.09;5011329;28;20033;-65
2022/06/08 09:01:34;;;;;;;3.40;1.40;;;;;;;22.90;30.54;99443.91;5012132;28;20423;-64
2022/06/08 09:04:09;;;;;;;1.35;1.00;;;;;;;23.12;30.45;99460.81;5012238;28;20014;-62
2022/06/08 09:06:36;;;;;;;2.72;1.60;;;;;;;23.41;31.78;99479.66;5009612;28;20030;-64
2022/06/08 09:09:12;;;;;;;1.95;1.15;;;;;;;23.20;31.21;99477.75;5009398;28;20053;-63
2022/06/08 09:11:41;;;;;;;2.17;1.42;;;;;;;23.23;32.08;99469.56;5010685;28;20457;-63
2022/06/08 09:14:19;;;;;;;4.78;1.40;;;;;;;23.31;34.24;99441.69;5012117;28;20030;-63
2022/06/08 09:17:12;;;;;;;2.90;1.55;;;;;;;23.50;32.89;99467.50;5009530;28;20033;-63
2022/06/08 09:19:49;;;;;;;3.97;1.60;;;;;;;23.26;31.22;99421.75;5005698;28;20045;-63
2022/06/08 09:22:22;;;;;;;3.17;1.33;;;;;;;23.68;33.67;99471.34;5009969;28;20491;-63
2022/06/08 09:24:55;;;;;;;3.67;1.60;;;;;;;23.73;33.03;99463.06;5012193;28;20117;-63
2022/06/08 09:27:38;;;;;;;3.25;1.95;;;;;;;23.63;31.19;99443.59;5012451;28;20034;-63
2022/06/08 09:30:18;;;;;;;3.38;1.20;;;;;;;23.61;30.33;99460.44;5012535;28;20379;-60
2022/06/08 09:32:59;;;;;;;5.53;2.05;;;;;;;23.43;33.71;99414.31;5012390;28;20496;-64
2022/06/08 09:35:32;;;;;;;1.67;1.15;;;;;;;23.47;31.29;99421.00;5012520;28;20041;-64
2022/06/08 09:38:06;;;;;;;4.20;1.50;;;;;;;23.88;31.75;99461.00;4992797;28;20034;-65
2022/06/08 09:41:03;;;;;;;2.60;1.40;;;;;;;23.88;31.77;99461.84;5009308;28;20036;-62
2022/06/08 09:43:46;;;;;;;3.38;1.67;;;;;;;23.71;29.55;99457.03;4987485;28;20073;-62
2022/06/08 09:52:35;;;;;;;3.13;1.40;;;;;;;23.79;32.13;99412.31;5012981;28;20034;-64
2022/06/08 09:55:38;;;;;;;6.85;2.20;;;;;;;24.10;31.37;99454.81;5016190;28;20095;-64
2022/06/08 09:58:40;;;;;;;5.10;1.80;;;;;;;24.13;30.97;99459.88;5015940;28;20026;-64
2022/06/08 10:01:18;;;;;;;2.60;1.30;;;;;;;24.11;31.73;99451.19;5015305;28;20040;-63
2022/06/08 10:04:01;;;;;;;4.15;1.77;;;;;;;24.05;29.91;99457.81;5015351;28;21322;-62
2022/06/08 10:06:43;;;;;;;2.30;1.55;;;;;;;23.79;29.31;99431.66;5015108;28;20038;-62
2022/06/08 10:09:47;;;;;;;3.83;1.15;;;;;;;23.85;27.85;99456.75;5011495;28;20394;-63
2022/06/08 10:12:26;;;;;;;1.63;1.23;;;;;;;23.51;29.10;99421.63;4948026;29;20053;-63
2022/06/08 10:15:01;;;;;;;3.08;1.10;;;;;;;23.80;30.50;99445.75;4933088;29;20090;-63
2022/06/08 10:17:46;;;;;;;1.65;1.30;;;;;;;23.68;30.98;99401.75;4943992;29;20039;-63
2022/06/08 10:20:19;;;;;;;1.75;1.40;;;;;;;23.68;29.92;99455.47;4946282;29;20031;-63
2022/06/08 10:22:50;;;;;;;3.60;1.60;;;;;;;23.73;30.33;99420.75;4932910;29;20496;-63
2022/06/08 10:25:29;;;;;;;2.08;1.40;;;;;;;23.71;29.48;99414.72;4955054;29;20050;-63
2022/06/08 10:28:00;;;;;;;3.42;1.27;;;;;;;23.69;28.26;99406.94;4954898;29;20046;-63
2022/06/08 10:30:34;;;;;;;3.70;1.40;;;;;;;24.04;28.78;99450.00;4952435;29;20035;-61
2022/06/08 10:33:16;;;;;;;2.90;1.10;;;;;;;23.91;27.33;99435.16;4946660;29;20031;-64
2022/06/08 10:35:46;;;;;;;1.23;1.13;;;;;;;23.89;27.75;99447.66;4944173;29;20074;-63
2022/06/08 10:38:26;;;;;;;4.32;1.30;;;;;;;23.83;27.98;99434.03;4948022;28;20118;-63
2022/06/08 10:40:58;;;;;;;3.28;1.30;;;;;;;23.89;28.27;99431.78;4948179;29;20050;-63
2022/06/08 10:43:31;;;;;;;1.60;1.30;;;;;;;23.76;28.52;99428.44;4991636;28;20503;-61
2022/06/08 10:46:03;;;;;;;4.43;1.40;;;;;;;23.65;29.80;99431.94;5014858;28;20040;-62
2022/06/08 10:48:34;;;;;;;6.35;1.73;;;;;;;23.78;30.54;99432.59;5013590;28;20042;-62
2022/06/08 10:51:09;;;;;;;6.97;1.70;;;;;;;23.61;28.79;99426.06;5014716;28;20034;-62
2022/06/08 10:56:46;;;;;;;1.73;1.35;;;;;;;23.86;30.49;99431.19;5014981;28;20029;-62
2022/06/08 10:59:14;;;;;;;;;;;;;;;23.88;30.41;99430.09;5014100;28;20025;-62
2022/06/08 11:01:59;;;;;;;1.83;1.38;;;;;;;23.81;28.82;99420.94;5014381;28;19913;-62
2022/06/08 11:04:27;;;;;;;3.20;1.30;;;;;;;23.78;28.20;99421.19;5014259;28;20100;-60
2022/06/08 11:07:11;;;;;;;2.33;1.10;;;;;;;23.78;29.07;99426.50;5014767;28;20501;-62
2022/06/08 11:09:36;;;;;;;4.50;1.35;;;;;;;23.83;28.96;99416.38;5014504;28;20089;-62
2022/06/08 11:12:04;;;;;;;2.78;1.35;;;;;;;23.87;29.47;99420.50;5014414;28;20534;-60
2022/06/08 11:14:57;;;;;;;7.45;1.83;;;;;;;24.02;30.80;99421.03;5014351;28;20026;-60
2022/06/08 11:17:25;;;;;;;3.58;1.30;;;;;;;24.03;29.45;99411.28;5007129;28;20041;-62
2022/06/08 11:19:55;;;;;;;2.30;1.20;;;;;;;24.07;30.78;99407.44;5014491;28;20032;-62
2022/06/08 11:22:29;;;;;;;2.13;1.60;;;;;;;23.94;31.42;99376.72;5014497;28;20459;-63
2022/06/08 11:25:01;;;;;;;5.15;1.30;;;;;;;24.23;29.54;99407.03;5014253;28;20036;-63
2022/06/08 11:27:29;;;;;;;2.58;1.48;;;;;;;24.14;29.49;99408.59;5013996;28;20098;-62
2022/06/08 11:30:21;;;;;;;2.83;1.33;;;;;;;24.25;30.63;99411.19;5014230;28;20113;-62
2022/06/08 11:32:52;;;;;;;;;;;;;;;24.25;30.80;99403.25;4991311;28;20069;-63
2022/06/08 11:35:48;;;;;;;3.73;1.50;;;;;;;24.03;30.82;99364.53;5013984;28;19913;-63
2022/06/08 11:38:40;;;;;;;2.65;1.60;;;;;;;24.16;31.63;99380.22;4994503;28;20037;-63
2022/06/08 11:41:30;;;;;;;2.88;1.50;;;;;;;24.32;30.73;99408.06;4994604;28;20080;-62
2022/06/08 11:43:59;;;;;;;3.13;1.20;;;;;;;24.34;28.67;99412.22;5012977;28;20056;-61
2022/06/08 11:46:39;;;;;;;2.50;1.45;;;;;;;24.15;28.94;99373.25;5013578;28;20026;-63
2022/06/08 11:49:07;;;;;;;1.95;1.20;;;;;;;24.40;30.08;99402.94;5013953;28;20037;-63
2022/06/08 11:51:40;;;;;;;1.42;1.30;;;;;;;24.17;26.32;99416.31;5013549;28;20141;-63
2022/06/08 11:54:26;;;;;;;3.05;1.70;;;;;;;24.23;26.63;99415.78;5013318;28;20088;-62
2022/06/08 11:57:12;;;;;;;4.97;1.33;;;;;;;24.24;26.71;99419.25;5013892;28;20049;-61
2022/06/08 11:59:41;;;;;;;2.00;1.73;;;;;;;24.00;28.02;99371.84;5011884;28;20057;-61
2022/06/08 12:02:20;;;;;;;3.88;1.33;;;;;;;24.18;27.79;99404.72;5013735;28;20442;-61
2022/06/08 12:04:50;;;;;;;4.43;1.65;;;;;;;24.19;25.97;99401.13;5013465;28;20092;-61
2022/06/08 12:07:43;;;;;;;1.75;1.60;;;;;;;24.20;27.71;99416.03;5013531;28;20038;-61